BAV2505 NZAA-NZQN
Flight info
| Callsign | BAV2505 |
|---|---|
| Flight time | N/A |
| Altitude | 36000 |
| Route | KAPAI Y320 DOVOT |
| Aircraft | A20N/M-SDE2E3FGHIRWXY/LB1 |
Departure
| Time | 2026-04-30 22:58 |
|---|---|
| Airport | Auckland International Airport (NZAA) |
Arrival
| Time | N/A |
|---|---|
| Airport | Queenstown Airport (NZQN) |
| Time | Latitude | Longitude | Altitude | Speed | Heading |
|---|---|---|---|---|---|
| 2026-04-30 21:57 | -37.00767 | 174.77691 | 21 ft | 0 kts | 162° |
| 2026-04-30 22:32 | -37.00742 | 174.77682 | 23 ft | 2 kts | 160° |
| 2026-04-30 22:33 | -37.00694 | 174.77671 | 25 ft | 2 kts | 191° |
| 2026-04-30 22:33 | -37.00665 | 174.77687 | 28 ft | 2 kts | 229° |
| 2026-04-30 22:34 | -37.00661 | 174.77692 | 27 ft | 0 kts | 243° |
| 2026-04-30 22:36 | -37.00677 | 174.77641 | 25 ft | 6 kts | 254° |
| 2026-04-30 22:36 | -37.00687 | 174.77598 | 25 ft | 5 kts | 252° |
| 2026-04-30 22:37 | -37.00748 | 174.77545 | 24 ft | 3 kts | 168° |
| 2026-04-30 22:37 | -37.00770 | 174.77554 | 23 ft | 4 kts | 162° |
| 2026-04-30 22:37 | -37.00823 | 174.77577 | 21 ft | 4 kts | 161° |
| 2026-04-30 22:38 | -37.00861 | 174.77593 | 21 ft | 1 kts | 161° |
| 2026-04-30 22:38 | -37.00875 | 174.77599 | 23 ft | 4 kts | 162° |
| 2026-04-30 22:39 | -37.00908 | 174.77612 | 22 ft | 7 kts | 160° |
| 2026-04-30 22:39 | -37.01068 | 174.77684 | 22 ft | 2 kts | 159° |
| 2026-04-30 22:40 | -37.01088 | 174.77693 | 24 ft | 5 kts | 162° |
| 2026-04-30 22:41 | -37.01235 | 174.77765 | 26 ft | 8 kts | 123° |
| 2026-04-30 22:41 | -37.01211 | 174.77909 | 26 ft | 8 kts | 73° |
| 2026-04-30 22:42 | -37.01138 | 174.78169 | 26 ft | 11 kts | 70° |
| 2026-04-30 22:43 | -37.01080 | 174.78274 | 29 ft | 5 kts | 15° |
| 2026-04-30 22:43 | -37.01005 | 174.78278 | 30 ft | 4 kts | 33° |
| 2026-04-30 22:44 | -37.00991 | 174.78336 | 29 ft | 3 kts | 85° |
| 2026-04-30 22:45 | -37.01041 | 174.78505 | 30 ft | 8 kts | 75° |
| 2026-04-30 22:45 | -37.00972 | 174.78554 | 29 ft | 8 kts | 333° |
| 2026-04-30 22:46 | -37.00975 | 174.78429 | 29 ft | 7 kts | 251° |
| 2026-04-30 22:47 | -37.01047 | 174.78297 | 29 ft | 8 kts | 319° |
| 2026-04-30 22:47 | -37.01022 | 174.78216 | 29 ft | 4 kts | 253° |
| 2026-04-30 22:48 | -37.01041 | 174.78143 | 28 ft | 5 kts | 251° |
| 2026-04-30 22:49 | -37.01077 | 174.78021 | 27 ft | 4 kts | 250° |
| 2026-04-30 22:49 | -37.01097 | 174.77941 | 29 ft | 2 kts | 252° |
| 2026-04-30 22:50 | -37.01156 | 174.77718 | 24 ft | 7 kts | 249° |
| 2026-04-30 22:51 | -37.01182 | 174.77642 | 26 ft | 2 kts | 234° |
| 2026-04-30 22:51 | -37.01231 | 174.77639 | 24 ft | 7 kts | 159° |
| 2026-04-30 22:52 | -37.01270 | 174.77647 | 30 ft | 5 kts | 189° |
| 2026-04-30 22:52 | -37.01303 | 174.77583 | 26 ft | 7 kts | 257° |
| 2026-04-30 22:53 | -37.01342 | 174.77411 | 27 ft | 13 kts | 252° |
| 2026-04-30 22:53 | -37.01403 | 174.77204 | 26 ft | 13 kts | 250° |
| 2026-04-30 22:53 | -37.01430 | 174.77122 | 27 ft | 6 kts | 231° |
| 2026-04-30 22:54 | -37.01487 | 174.77098 | 29 ft | 0 kts | 190° |
| 2026-04-30 22:55 | -37.01548 | 174.77085 | 27 ft | 13 kts | 189° |
| 2026-04-30 22:55 | -37.01630 | 174.77102 | 29 ft | 2 kts | 71° |
| 2026-04-30 22:56 | -37.01629 | 174.77102 | 28 ft | 0 kts | 70° |
| 2026-04-30 22:57 | -37.01488 | 174.77615 | 29 ft | 88 kts | 70° |
| 2026-04-30 22:57 | -37.00875 | 174.79791 | 240 ft | 152 kts | 71° |
| 2026-04-30 22:58 | -37.01147 | 174.82028 | 1410 ft | 146 kts | 156° |
| 2026-04-30 22:59 | -37.04561 | 174.81647 | 2559 ft | 190 kts | 183° |
| 2026-04-30 22:59 | -37.08844 | 174.81413 | 3944 ft | 210 kts | 178° |